createdAt,value
2023-01-17T04:36:30.606Z,14.90
2023-01-17T04:38:58.006Z,15.60
2023-01-17T04:41:32.575Z,12.30
2023-01-17T04:44:02.170Z,13.70
2023-01-17T04:46:51.318Z,13.40
2023-01-17T04:49:18.856Z,11.40
2023-01-17T04:51:47.413Z,11.60
2023-01-17T04:54:16.487Z,12.30
2023-01-17T05:02:36.286Z,13.60
2023-01-17T05:05:04.555Z,12.60
2023-01-17T05:07:33.535Z,14.50
2023-01-17T05:10:03.222Z,13.90
2023-01-17T05:12:41.372Z,13.30
2023-01-17T05:15:15.015Z,15.70
2023-01-17T05:20:16.394Z,14.30
2023-01-17T05:22:51.877Z,14.90
2023-01-17T05:25:21.057Z,13.60
2023-01-17T05:27:48.337Z,13.60
2023-01-17T05:30:16.099Z,14.40
2023-01-17T05:32:49.705Z,14.80
2023-01-17T05:35:22.020Z,15.50
2023-01-17T05:37:50.656Z,16.30
2023-01-17T05:40:28.389Z,15.40
2023-01-17T05:42:57.286Z,16.60
2023-01-17T05:45:25.798Z,17.30
2023-01-17T05:47:53.806Z,16.40
2023-01-17T05:50:24.576Z,17.20
2023-01-17T05:52:56.578Z,19.30
2023-01-17T05:55:24.765Z,17.10
2023-01-17T05:57:52.426Z,17.70
2023-01-17T06:00:22.427Z,17.40
2023-01-17T06:02:50.129Z,18.10
2023-01-17T06:05:21.988Z,18.90
2023-01-17T06:07:52.001Z,17.10
2023-01-17T06:10:21.144Z,17.80
2023-01-17T06:12:49.823Z,18.00
2023-01-17T06:15:18.299Z,21.00
2023-01-17T06:17:45.916Z,20.00
2023-01-17T06:20:14.212Z,20.80
2023-01-17T06:22:49.087Z,18.20
2023-01-17T06:25:19.660Z,19.20
2023-01-17T06:27:48.242Z,20.40
2023-01-17T06:30:25.176Z,20.50
2023-01-17T06:32:59.220Z,19.00
2023-01-17T06:35:29.704Z,19.50
2023-01-17T06:38:00.803Z,20.50
2023-01-17T06:40:30.092Z,18.90
2023-01-17T06:43:43.086Z,21.30
2023-01-17T06:46:13.955Z,20.60
2023-01-17T06:48:43.793Z,19.50
2023-01-17T06:51:21.929Z,22.10
2023-01-17T06:53:50.605Z,22.00
2023-01-17T06:56:21.909Z,21.90
2023-01-17T06:58:50.853Z,19.20
2023-01-17T07:01:19.772Z,21.20
2023-01-17T07:03:48.578Z,21.30
2023-01-17T07:06:15.890Z,23.70
2023-01-17T07:08:43.558Z,21.90
2023-01-17T07:11:12.852Z,21.30
2023-01-17T07:13:40.215Z,23.80
2023-01-17T07:16:09.307Z,21.80
2023-01-17T07:18:36.504Z,22.50
2023-01-17T07:21:04.615Z,22.30
2023-01-17T07:23:31.833Z,23.30
2023-01-17T07:26:02.049Z,22.70
2023-01-17T07:28:31.522Z,21.60
2023-01-17T07:31:06.291Z,21.70
2023-01-17T07:33:35.696Z,23.60
2023-01-17T07:36:09.907Z,23.40
2023-01-17T07:38:37.512Z,21.10
2023-01-17T07:41:11.018Z,21.90
2023-01-17T07:43:38.670Z,21.20
2023-01-17T07:46:08.385Z,23.70
2023-01-17T07:48:36.145Z,22.10
2023-01-17T07:51:06.588Z,22.80
2023-01-17T07:53:36.995Z,22.10
2023-01-17T07:56:07.773Z,22.30
2023-01-17T07:58:37.579Z,23.80
2023-01-17T08:01:05.749Z,22.90
2023-01-17T08:03:36.133Z,25.30
2023-01-17T08:06:03.671Z,23.60
2023-01-17T14:14:44.545Z,35.00
2023-01-17T14:17:23.239Z,36.00
2023-01-17T14:19:51.356Z,34.80
2023-01-17T15:03:03.979Z,30.60
2023-01-17T15:05:33.412Z,33.20
2023-01-17T15:08:00.495Z,31.70
2023-01-17T15:10:32.042Z,35.10
2023-01-17T15:13:07.154Z,34.70
2023-01-17T15:15:35.904Z,33.60
2023-01-17T15:18:15.379Z,34.10
2023-01-17T15:20:46.692Z,34.80
2023-01-17T15:23:22.404Z,35.00
2023-01-17T15:25:50.710Z,32.80
2023-01-17T15:28:20.182Z,31.90
2023-01-17T15:31:40.843Z,31.30
2023-01-17T15:34:19.229Z,31.70
2023-01-17T15:36:51.052Z,30.40
2023-01-17T15:39:36.012Z,32.30
2023-01-17T15:42:25.081Z,34.10
2023-01-17T15:45:03.451Z,32.30
2023-01-17T15:47:33.693Z,32.10
2023-01-17T15:50:02.210Z,29.20
2023-01-17T15:52:30.280Z,30.50
2023-01-17T15:55:40.315Z,30.00
2023-01-17T15:58:40.312Z,30.30
2023-01-17T16:01:14.983Z,29.90
2023-01-17T16:03:51.977Z,31.70
2023-01-17T16:06:48.169Z,32.40
2023-01-17T22:23:54.415Z,27.70
2023-01-17T22:26:28.038Z,31.10
2023-01-17T22:28:58.650Z,27.40
2023-01-17T22:31:27.325Z,27.20
2023-01-17T22:34:05.269Z,30.00
2023-01-17T22:36:33.223Z,25.80
2023-01-17T22:39:00.853Z,26.70
2023-01-17T22:41:34.677Z,29.00
2023-01-17T22:44:02.604Z,26.30
2023-01-17T22:46:31.394Z,26.20
2023-01-17T22:48:59.364Z,28.70
2023-01-17T22:51:29.830Z,27.80
2023-01-17T22:53:59.730Z,26.80
2023-01-17T22:56:28.794Z,26.10
2023-01-17T22:58:58.005Z,27.60
2023-01-17T23:01:29.889Z,26.70
2023-01-17T23:04:01.189Z,24.80
2023-01-17T23:06:34.363Z,24.50
2023-01-17T23:09:07.697Z,25.60
2023-01-17T23:11:43.019Z,24.80
2023-01-17T23:14:15.404Z,25.10
2023-01-17T23:17:06.444Z,23.40
2023-01-17T23:25:31.671Z,25.60
2023-01-17T23:28:11.381Z,24.00
2023-01-17T23:30:40.610Z,23.00
2023-01-17T23:33:12.563Z,23.70
2023-01-17T23:38:26.638Z,23.60
2023-01-17T23:41:12.529Z,24.50
2023-01-17T23:43:41.204Z,23.50
2023-01-17T23:46:11.261Z,23.50
2023-01-17T23:48:38.299Z,21.80
2023-01-17T23:51:11.692Z,21.00
2023-01-17T23:53:38.935Z,24.80
2023-01-17T23:56:10.365Z,24.20
2023-01-17T23:58:38.717Z,22.20
